Time;durP1;ratioP1;P1;durP2;ratioP2;P2;SDS_P1;SDS_P2;PMS_P1;PMS_P2;Temp;Humidity;BMP_temperature;BMP_pressure;BME280_temperature;BME280_humidity;BME280_pressure;Samples;Min_cycle;Max_cycle;Signal;HPM_P1;HPM_P2
2022/08/12 00:44:54;;;;;;;9.70;6.70;;;19.00;99.90;;;;;;5081794;28;20101;-74
2022/08/12 00:47:20;;;;;;;8.85;6.07;;;18.90;99.90;;;;;;5084956;28;20222;-74
2022/08/12 00:49:48;;;;;;;7.90;6.47;;;18.90;99.90;;;;;;5065048;28;20116;-72
2022/08/12 00:52:15;;;;;;;7.65;6.22;;;18.80;99.90;;;;;;5082284;28;20064;-73
2022/08/12 00:54:45;;;;;;;7.28;6.13;;;18.80;99.90;;;;;;5065807;28;20422;-73
2022/08/12 00:57:19;;;;;;;9.57;6.10;;;18.70;99.90;;;;;;5076889;28;20036;-72
2022/08/12 00:59:57;;;;;;;12.27;6.53;;;18.60;99.90;;;;;;5082134;28;20088;-74
2022/08/12 01:02:30;;;;;;;6.93;6.05;;;18.60;99.90;;;;;;5079144;28;20036;-74
2022/08/12 01:13:25;;;;;;;9.50;6.45;;;18.60;99.90;;;;;;5080390;28;20392;-73
2022/08/12 01:15:54;;;;;;;10.00;6.00;;;18.60;99.90;;;;;;5077300;28;20052;-73
2022/08/12 01:18:22;;;;;;;9.25;5.50;;;18.60;99.90;;;;;;5064669;28;20429;-73
2022/08/12 01:20:51;;;;;;;11.70;6.10;;;18.60;99.90;;;;;;5063299;28;20221;-72
2022/08/12 01:23:44;;;;;;;12.63;6.30;;;18.60;99.90;;;;;;5083919;28;20062;-75
2022/08/12 01:26:19;;;;;;;8.93;5.70;;;18.60;99.90;;;;;;5079231;28;20036;-73
2022/08/12 01:28:47;;;;;;;7.85;5.43;;;18.50;99.90;;;;;;5077613;28;20036;-73
2022/08/12 01:31:15;;;;;;;7.63;5.57;;;18.60;99.90;;;;;;5079888;28;20379;-74
2022/08/12 01:33:57;;;;;;;12.90;5.85;;;18.60;99.90;;;;;;5061227;28;20198;-73
2022/08/12 01:36:27;;;;;;;9.80;5.63;;;18.60;99.90;;;;;;5067845;28;20100;-73
2022/08/12 01:38:56;;;;;;;9.02;5.43;;;18.60;99.90;;;;;;5073503;28;20044;-73
2022/08/12 01:41:24;;;;;;;8.00;5.35;;;18.50;99.90;;;;;;5072819;28;20454;-73
2022/08/12 01:43:53;;;;;;;8.02;5.05;;;18.50;99.90;;;;;;5072305;28;20547;-74
2022/08/12 01:46:36;;;;;;;10.32;5.65;;;18.50;99.90;;;;;;5074876;28;20378;-74
2022/08/12 01:49:26;;;;;;;12.40;5.90;;;18.50;99.90;;;;;;5063726;28;20032;-74
2022/08/12 01:52:02;;;;;;;11.13;5.50;;;18.50;99.90;;;;;;5080333;28;20145;-73
2022/08/12 01:54:37;;;;;;;9.40;5.32;;;18.50;99.90;;;;;;5077232;28;20046;-72
2022/08/12 01:57:02;;;;;;;10.23;5.38;;;18.50;99.90;;;;;;5076749;28;20517;-75
2022/08/12 01:59:45;;;;;;;9.20;5.55;;;18.50;99.90;;;;;;5082748;28;20040;-73
2022/08/12 02:02:18;;;;;;;11.60;5.80;;;18.40;99.90;;;;;;5080419;28;20085;-73
2022/08/12 02:11:17;;;;;;;8.57;5.57;;;18.30;99.90;;;;;;5082668;28;20068;-73
2022/08/12 02:14:11;;;;;;;10.10;5.60;;;18.30;99.90;;;;;;5071425;28;20400;-75
2022/08/12 02:16:59;;;;;;;12.85;6.05;;;18.30;99.90;;;;;;5071020;28;20047;-72
2022/08/12 02:19:59;;;;;;;9.48;5.63;;;18.30;99.90;;;;;;5080888;28;20115;-72
2022/08/12 02:22:33;;;;;;;10.02;5.45;;;18.20;99.90;;;;;;4968465;28;20513;-73
2022/08/12 02:25:30;;;;;;;12.38;4.85;;;18.20;99.90;;;;;;4978654;28;20057;-74
2022/08/12 02:27:56;;;;;;;8.75;5.47;;;18.10;99.90;;;;;;4986035;28;20455;-74
2022/08/12 02:30:24;;;;;;;10.55;5.55;;;18.10;99.90;;;;;;4981214;28;20088;-74
2022/08/12 02:32:52;;;;;;;8.80;5.47;;;18.10;99.90;;;;;;4974335;28;20050;-72
2022/08/12 02:35:22;;;;;;;8.05;5.22;;;18.10;99.90;;;;;;4983119;28;20508;-74
2022/08/12 02:37:50;;;;;;;13.07;5.50;;;18.10;99.90;;;;;;5004713;28;20060;-74
2022/08/12 02:40:18;;;;;;;9.60;5.10;;;18.00;99.90;;;;;;4987931;28;20057;-75
2022/08/12 02:43:16;;;;;;;9.18;5.88;;;18.00;99.90;;;;;;4991172;28;20049;-74
2022/08/12 02:46:03;;;;;;;13.02;5.85;;;18.00;99.90;;;;;;5003299;28;20066;-73
2022/08/12 02:48:40;;;;;;;10.02;5.53;;;17.90;99.90;;;;;;4972975;28;20145;-74
2022/08/12 02:51:08;;;;;;;7.80;5.30;;;18.00;99.90;;;;;;4975958;28;20034;-73
2022/08/12 02:53:36;;;;;;;7.25;5.30;;;18.00;99.90;;;;;;4990392;28;20045;-73
2022/08/12 02:56:06;;;;;;;11.55;5.70;;;17.90;99.90;;;;;;4983423;28;20057;-73
2022/08/12 02:58:34;;;;;;;8.15;5.32;;;17.90;99.90;;;;;;5000371;28;20111;-73
2022/08/12 03:01:02;;;;;;;14.82;5.57;;;17.90;99.90;;;;;;5078529;28;20055;-74
2022/08/12 03:03:31;;;;;;;10.75;6.30;;;17.90;99.90;;;;;;5076416;28;20119;-73
2022/08/12 03:05:59;;;;;;;13.65;5.70;;;17.90;99.90;;;;;;5080255;28;20118;-73
2022/08/12 03:08:33;;;;;;;9.45;5.68;;;18.00;99.90;;;;;;5077194;28;20090;-74
2022/08/12 03:11:28;;;;;;;9.00;5.32;;;17.90;99.90;;;;;;5092603;28;20040;-72
2022/08/12 03:14:00;;;;;;;6.90;5.43;;;18.00;99.90;;;;;;5084027;28;21090;-73
2022/08/12 03:16:29;;;;;;;8.40;5.32;;;17.90;99.90;;;;;;5064943;28;20163;-73
2022/08/12 03:18:56;;;;;;;14.05;5.72;;;17.90;99.90;;;;;;5083877;28;20086;-72
2022/08/12 03:21:23;;;;;;;9.70;5.63;;;17.90;99.90;;;;;;5068289;28;20048;-72
2022/08/12 03:23:53;;;;;;;9.45;5.53;;;17.80;99.90;;;;;;5078907;28;20087;-73
2022/08/12 03:26:24;;;;;;;8.50;5.50;;;17.80;99.90;;;;;;5082190;28;20458;-73
2022/08/12 03:28:52;;;;;;;8.38;5.15;;;17.80;99.90;;;;;;5079817;28;20048;-74
2022/08/12 03:31:31;;;;;;;14.13;5.57;;;17.80;99.90;;;;;;5081648;28;20110;-74
2022/08/12 03:37:42;;;;;;;9.35;5.72;;;17.70;99.90;;;;;;5077198;28;20035;-73
2022/08/12 03:41:31;;;;;;;7.70;5.45;;;17.60;99.90;;;;;;5079127;28;20048;-71
2022/08/12 04:02:14;;;;;;;10.82;5.60;;;17.50;99.90;;;;;;5079445;28;20048;-73
2022/08/12 04:04:43;;;;;;;10.77;5.10;;;17.50;99.90;;;;;;5093716;28;20125;-74
2022/08/12 04:07:11;;;;;;;7.53;5.25;;;17.50;99.90;;;;;;5092671;28;20347;-74
2022/08/12 04:09:39;;;;;;;10.20;5.75;;;17.50;99.90;;;;;;5091125;28;22143;-73
2022/08/12 04:14:50;;;;;;;;;;;17.50;99.90;;;;;;5087017;28;20131;-73
2022/08/12 04:17:17;;;;;;;7.88;5.07;;;17.50;99.90;;;;;;5077485;28;20063;-74
2022/08/12 04:19:46;;;;;;;8.63;5.28;;;17.50;99.90;;;;;;5076638;28;20043;-72
2022/08/12 04:22:12;;;;;;;13.00;5.28;;;17.50;99.90;;;;;;5085072;28;20492;-73
2022/08/12 04:24:39;;;;;;;8.02;5.45;;;17.50;99.90;;;;;;5080569;28;20084;-74
2022/08/12 04:27:08;;;;;;;9.32;5.43;;;17.50;99.90;;;;;;5082258;28;20766;-74
2022/08/12 04:29:34;;;;;;;15.52;5.10;;;17.50;99.90;;;;;;5068739;28;20328;-74
2022/08/12 04:32:00;;;;;;;10.60;5.40;;;17.40;99.90;;;;;;5067309;28;20052;-72
2022/08/12 04:34:27;;;;;;;12.50;4.97;;;17.40;99.90;;;;;;5078478;28;20038;-73
2022/08/12 04:36:52;;;;;;;11.95;5.00;;;17.40;99.90;;;;;;5086909;28;20044;-74
2022/08/12 04:39:21;;;;;;;9.25;5.03;;;17.40;99.90;;;;;;5064437;28;20050;-73
2022/08/12 04:41:48;;;;;;;6.70;4.70;;;17.40;99.90;;;;;;5076711;28;20184;-74
2022/08/12 04:44:14;;;;;;;15.20;5.10;;;17.40;99.90;;;;;;5083372;28;20040;-73
2022/08/12 04:46:40;;;;;;;8.02;4.45;;;17.40;99.90;;;;;;5081703;28;20169;-73
2022/08/12 04:49:05;;;;;;;12.40;5.13;;;17.40;99.90;;;;;;5064881;28;20127;-74
2022/08/12 04:51:32;;;;;;;7.65;4.72;;;17.50;99.90;;;;;;5080628;28;20416;-74
2022/08/12 04:54:00;;;;;;;10.30;5.00;;;17.50;99.90;;;;;;5069616;28;20039;-74
2022/08/12 04:56:28;;;;;;;6.70;4.53;;;17.50;99.90;;;;;;5084075;28;20070;-73
2022/08/12 04:58:55;;;;;;;8.40;4.38;;;17.60;99.90;;;;;;5084042;28;20044;-71
2022/08/12 05:01:20;;;;;;;11.75;5.07;;;17.60;99.90;;;;;;5074277;28;20044;-70
2022/08/12 05:03:50;;;;;;;5.00;4.50;;;17.60;99.90;;;;;;5075623;28;20055;-70
2022/08/12 05:06:15;;;;;;;6.93;4.20;;;17.70;99.90;;;;;;5071620;28;20052;-70
2022/08/12 05:08:41;;;;;;;15.27;4.28;;;17.70;99.90;;;;;;5077376;28;20036;-70
2022/08/12 05:11:07;;;;;;;5.45;4.40;;;17.80;99.90;;;;;;5079101;28;20045;-71
2022/08/12 05:13:38;;;;;;;8.38;4.10;;;17.80;99.90;;;;;;5078686;28;20063;-72
2022/08/12 05:16:05;;;;;;;10.27;4.28;;;17.90;99.90;;;;;;5082439;28;20126;-71
2022/08/12 05:18:36;;;;;;;7.63;4.28;;;17.90;99.90;;;;;;5072464;28;20056;-71
2022/08/12 05:21:09;;;;;;;7.35;3.90;;;18.00;99.90;;;;;;5075837;28;20120;-72
2022/08/12 05:23:36;;;;;;;11.50;4.40;;;18.10;99.90;;;;;;5060996;28;20120;-72
2022/08/12 05:26:04;;;;;;;7.88;4.22;;;18.10;99.90;;;;;;5073907;28;22261;-72
2022/08/12 05:28:33;;;;;;;9.50;4.00;;;18.20;99.90;;;;;;5072885;28;20062;-72
2022/08/12 05:31:03;;;;;;;6.68;4.03;;;18.20;99.90;;;;;;5062545;28;20056;-72
2022/08/12 05:33:39;;;;;;;8.63;4.20;;;18.30;99.90;;;;;;5074346;28;20142;-72
2022/08/12 05:36:13;;;;;;;12.48;4.63;;;18.40;99.90;;;;;;5061292;28;20070;-72
2022/08/12 05:38:57;;;;;;;10.33;4.37;;;18.40;99.90;;;;;;5073940;28;20048;-71
2022/08/12 05:41:31;;;;;;;4.80;3.85;;;18.50;99.90;;;;;;5077982;28;20040;-72
2022/08/12 05:43:59;;;;;;;10.80;4.20;;;18.60;99.90;;;;;;5073180;28;22570;-72
2022/08/12 05:46:27;;;;;;;12.23;3.60;;;18.70;99.90;;;;;;5076213;28;20051;-71
2022/08/12 05:48:54;;;;;;;11.82;3.53;;;18.80;99.90;;;;;;5073814;28;20036;-72
2022/08/12 05:51:24;;;;;;;8.98;4.07;;;18.90;99.90;;;;;;5077665;28;20044;-72
2022/08/12 05:53:54;;;;;;;8.77;4.10;;;18.90;99.90;;;;;;5077567;28;20556;-72
2022/08/12 05:56:22;;;;;;;7.68;3.60;;;19.00;99.90;;;;;;5081538;28;20089;-72
2022/08/12 05:58:50;;;;;;;9.23;3.75;;;19.00;99.90;;;;;;5063374;28;20176;-71
2022/08/12 06:01:16;;;;;;;7.65;3.85;;;19.10;99.90;;;;;;5081171;28;20055;-71
2022/08/12 06:03:42;;;;;;;7.97;3.95;;;19.10;99.90;;;;;;5075801;28;20048;-70
2022/08/12 06:06:09;;;;;;;6.45;4.38;;;19.10;99.90;;;;;;5076173;28;20048;-69
2022/08/12 06:08:35;;;;;;;10.77;3.85;;;19.20;99.90;;;;;;5082136;28;20032;-71
2022/08/12 06:11:03;;;;;;;9.13;4.10;;;19.20;99.90;;;;;;5063498;28;20561;-71
2022/08/12 06:13:29;;;;;;;9.27;4.10;;;19.20;99.90;;;;;;5064879;28;20185;-71
2022/08/12 06:15:55;;;;;;;7.95;4.05;;;19.30;99.90;;;;;;5065071;28;20131;-71
2022/08/12 06:18:21;;;;;;;13.25;4.20;;;19.40;99.90;;;;;;5081979;28;20048;-72
2022/08/12 06:20:48;;;;;;;11.90;4.43;;;19.40;99.90;;;;;;5083445;28;20055;-70
2022/08/12 06:23:14;;;;;;;9.35;4.07;;;19.40;99.90;;;;;;5065958;28;20939;-71
2022/08/12 06:25:42;;;;;;;12.32;4.05;;;19.50;99.90;;;;;;5079045;28;20175;-70
2022/08/12 06:28:20;;;;;;;8.80;4.22;;;19.60;99.90;;;;;;5084917;28;20070;-71
2022/08/12 06:30:45;;;;;;;6.15;3.58;;;19.70;99.90;;;;;;5085465;28;20115;-71
2022/08/12 06:33:12;;;;;;;10.32;4.20;;;19.80;99.90;;;;;;5068708;28;20115;-73
2022/08/12 06:35:40;;;;;;;12.85;3.75;;;19.80;99.90;;;;;;5078655;28;20411;-71
2022/08/12 06:38:19;;;;;;;8.70;3.90;;;19.90;99.90;;;;;;5083630;28;20118;-71
2022/08/12 06:43:33;;;;;;;9.45;3.60;;;19.90;99.90;;;;;;5081572;28;20047;-71
2022/08/12 06:45:59;;;;;;;7.18;3.45;;;20.10;99.90;;;;;;5078443;28;20055;-73
2022/08/12 06:48:28;;;;;;;4.43;3.22;;;20.20;99.90;;;;;;5085189;28;20024;-73
2022/08/12 06:50:58;;;;;;;12.13;3.20;;;20.20;99.90;;;;;;5073501;28;20107;-73
2022/08/12 06:53:25;;;;;;;7.80;2.88;;;20.30;99.90;;;;;;5070450;28;20122;-74
2022/08/12 06:55:53;;;;;;;11.35;2.80;;;20.40;99.90;;;;;;5083862;28;20378;-73
2022/08/12 06:58:20;;;;;;;13.65;3.20;;;20.50;99.90;;;;;;5085846;28;20058;-74
2022/08/12 07:00:48;;;;;;;3.25;2.67;;;20.60;99.90;;;;;;5085561;28;20493;-73
2022/08/12 07:03:20;;;;;;;8.32;2.70;;;20.60;99.90;;;;;;5081759;28;20055;-74
2022/08/12 07:05:46;;;;;;;12.25;3.30;;;20.70;99.90;;;;;;5080373;28;20033;-75
2022/08/12 07:08:14;;;;;;;5.45;2.72;;;20.80;99.90;;;;;;5068343;28;20063;-73
2022/08/12 07:11:00;;;;;;;9.30;2.45;;;20.90;99.90;;;;;;5081828;28;20039;-73
2022/08/12 07:13:37;;;;;;;10.00;2.85;;;21.00;99.90;;;;;;5084058;28;20059;-73
2022/08/12 07:16:03;;;;;;;8.85;2.58;;;21.10;99.90;;;;;;5082433;28;20497;-74
2022/08/12 07:18:31;;;;;;;8.65;2.53;;;21.20;99.90;;;;;;5082333;28;21761;-74
2022/08/12 07:21:01;;;;;;;8.82;2.78;;;21.30;99.90;;;;;;5064970;28;20052;-74
2022/08/12 07:23:32;;;;;;;8.43;2.40;;;21.50;99.90;;;;;;5070025;28;20170;-73
2022/08/12 07:26:00;;;;;;;12.05;3.15;;;21.50;99.90;;;;;;5077101;28;20032;-74
2022/08/12 07:28:29;;;;;;;8.10;2.40;;;21.60;99.90;;;;;;5066634;28;20037;-74
2022/08/12 07:30:56;;;;;;;8.80;2.30;;;21.70;99.90;;;;;;5083188;28;20126;-74
2022/08/12 07:33:27;;;;;;;8.95;2.55;;;21.80;99.90;;;;;;5066563;28;20139;-74
2022/08/12 07:35:55;;;;;;;8.40;2.40;;;21.80;99.90;;;;;;5066831;28;20047;-74
2022/08/12 07:38:32;;;;;;;4.30;2.55;;;21.90;99.90;;;;;;5086581;28;20071;-74
2022/08/12 07:41:04;;;;;;;8.95;2.47;;;21.90;99.90;;;;;;5086135;28;20036;-74
2022/08/12 07:43:31;;;;;;;6.78;2.33;;;22.00;99.90;;;;;;5071211;28;20048;-72
2022/08/12 07:45:59;;;;;;;8.48;2.17;;;22.10;99.90;;;;;;5064416;28;20380;-72
2022/08/12 07:48:25;;;;;;;9.10;2.33;;;22.10;99.90;;;;;;5085185;28;20036;-72
2022/08/12 07:50:52;;;;;;;7.45;2.60;;;22.20;99.90;;;;;;5082905;28;20083;-74
2022/08/12 07:53:19;;;;;;;11.73;2.35;;;22.30;99.90;;;;;;5075667;28;20028;-74
2022/08/12 07:55:45;;;;;;;6.63;2.47;;;22.40;99.90;;;;;;5076916;28;20040;-75
2022/08/12 07:58:11;;;;;;;18.25;2.70;;;22.50;99.90;;;;;;5060888;28;20366;-75
2022/08/12 08:00:41;;;;;;;5.25;2.45;;;22.60;99.90;;;;;;5068374;28;20043;-75
2022/08/12 08:03:07;;;;;;;9.07;2.30;;;22.80;99.90;;;;;;5069186;28;20044;-75
2022/08/12 08:05:53;;;;;;;8.57;2.35;;;22.80;99.90;;;;;;5061864;28;20059;-76
2022/08/12 08:08:20;;;;;;;;;;;23.00;99.90;;;;;;5080836;28;20041;-76
2022/08/12 08:10:47;;;;;;;3.78;2.10;;;23.10;99.90;;;;;;5083067;28;19922;-76
2022/08/12 08:13:14;;;;;;;6.63;2.22;;;23.20;99.90;;;;;;5076444;28;20071;-75
2022/08/12 08:15:40;;;;;;;7.25;2.35;;;23.30;99.90;;;;;;5063140;28;20052;-74
2022/08/12 08:18:08;;;;;;;6.25;2.08;;;23.40;99.90;;;;;;5077168;28;20128;-74
2022/08/12 08:20:45;;;;;;;11.93;2.35;;;23.60;99.90;;;;;;5083059;28;20040;-73
2022/08/12 08:23:16;;;;;;;7.35;2.47;;;23.80;99.90;;;;;;5082200;28;20036;-75
2022/08/12 08:25:43;;;;;;;6.03;2.30;;;23.80;99.90;;;;;;5079154;28;21515;-75
2022/08/12 08:28:20;;;;;;;10.15;2.08;;;24.00;99.90;;;;;;5064453;28;20036;-74
2022/08/12 08:30:46;;;;;;;11.52;2.38;;;24.10;99.90;;;;;;5066346;28;20112;-75
2022/08/12 08:33:14;;;;;;;6.43;2.08;;;24.20;99.90;;;;;;5061841;28;20521;-75
2022/08/12 08:35:41;;;;;;;5.63;2.10;;;24.50;99.90;;;;;;5077429;28;20464;-74
2022/08/12 08:38:09;;;;;;;5.38;2.47;;;24.50;99.90;;;;;;5073872;28;20138;-75
2022/08/12 08:43:26;;;;;;;7.45;2.10;;;24.70;99.90;;;;;;5076254;28;20163;-74
2022/08/12 08:45:54;;;;;;;8.13;2.17;;;24.90;99.90;;;;;;5082409;28;20064;-75
2022/08/12 08:48:21;;;;;;;8.80;2.35;;;24.90;99.90;;;;;;5087468;28;20064;-74
2022/08/12 08:50:47;;;;;;;7.53;2.35;;;25.10;99.90;;;;;;5076022;28;20052;-74
2022/08/12 08:53:12;;;;;;;5.20;2.03;;;25.20;99.90;;;;;;5079190;28;20143;-73
2022/08/12 08:55:39;;;;;;;4.22;2.22;;;25.30;99.90;;;;;;5073913;28;20059;-74
2022/08/12 08:58:05;;;;;;;6.10;2.20;;;25.30;99.90;;;;;;5085766;28;20519;-75
2022/08/12 09:00:41;;;;;;;8.48;2.00;;;25.50;99.90;;;;;;5065494;28;20032;-74
2022/08/12 09:03:07;;;;;;;6.65;2.10;;;25.60;99.90;;;;;;5073065;28;20093;-72
2022/08/12 09:05:34;;;;;;;5.82;2.40;;;25.70;99.90;;;;;;5078913;28;20462;-74
2022/08/12 09:08:04;;;;;;;7.25;2.20;;;25.80;99.90;;;;;;5071331;28;20051;-75
2022/08/12 09:10:30;;;;;;;18.08;2.55;;;25.90;99.90;;;;;;5072050;28;20163;-75
2022/08/12 09:15:41;;;;;;;4.03;2.40;;;26.10;99.90;;;;;;5072428;28;20063;-75
2022/08/12 09:18:09;;;;;;;4.63;2.03;;;26.10;99.90;;;;;;5057343;28;20078;-76
2022/08/12 09:20:37;;;;;;;6.05;2.00;;;26.30;99.90;;;;;;5062082;28;20106;-75
2022/08/12 09:23:10;;;;;;;12.52;2.38;;;26.40;99.30;;;;;;5091348;28;20348;-75
2022/08/12 09:25:38;;;;;;;9.18;2.10;;;26.40;98.90;;;;;;5073874;28;20052;-75
2022/08/12 09:28:08;;;;;;;4.45;2.20;;;26.50;98.20;;;;;;5073977;28;20460;-75
2022/08/12 09:30:34;;;;;;;6.53;2.10;;;26.50;98.10;;;;;;5072733;28;20043;-74
2022/08/12 09:32:59;;;;;;;6.00;2.40;;;26.60;96.80;;;;;;5070190;28;20056;-74
2022/08/12 09:35:32;;;;;;;110.53;10.60;;;26.80;97.20;;;;;;5072000;28;20505;-74
2022/08/12 09:38:01;;;;;;;11.82;2.60;;;26.90;97.90;;;;;;5058942;28;20044;-74
2022/08/12 09:40:28;;;;;;;149.55;13.07;;;27.10;98.20;;;;;;5076541;28;20036;-72
2022/08/12 09:45:41;;;;;;;11.23;2.03;;;27.40;96.80;;;;;;5074711;28;20367;-75
2022/08/12 09:48:07;;;;;;;6.43;2.13;;;27.40;96.50;;;;;;5079656;28;20128;-75
2022/08/12 09:50:34;;;;;;;5.25;2.05;;;27.50;96.40;;;;;;5073794;28;21982;-76
2022/08/12 09:53:13;;;;;;;5.55;1.83;;;27.60;96.50;;;;;;5074402;28;20048;-76
2022/08/12 09:55:47;;;;;;;7.55;2.10;;;27.80;95.40;;;;;;5054018;28;20490;-75
2022/08/12 09:58:16;;;;;;;9.82;2.47;;;27.80;95.40;;;;;;5057812;28;20123;-75
2022/08/12 10:00:46;;;;;;;7.18;2.17;;;28.00;95.40;;;;;;5072327;28;20076;-75
2022/08/12 10:03:14;;;;;;;4.10;2.20;;;28.10;95.10;;;;;;5071032;28;20418;-75
2022/08/12 10:05:48;;;;;;;7.80;2.00;;;28.30;95.50;;;;;;5077031;28;20052;-73
2022/08/12 10:08:16;;;;;;;8.45;2.90;;;28.40;94.80;;;;;;5076463;28;20094;-74
2022/08/12 10:13:41;;;;;;;5.20;2.15;;;28.60;95.20;;;;;;5076595;28;20539;-74
2022/08/12 10:16:07;;;;;;;6.78;2.30;;;28.80;94.90;;;;;;5080867;28;20070;-73
2022/08/12 10:18:35;;;;;;;7.53;2.15;;;28.90;94.60;;;;;;5080751;28;20164;-73
2022/08/12 10:21:08;;;;;;;10.77;2.38;;;29.10;94.30;;;;;;5064081;28;20143;-73
2022/08/12 10:23:35;;;;;;;4.70;1.95;;;28.90;93.40;;;;;;5071430;28;20498;-73
2022/08/12 10:31:30;;;;;;;7.00;2.13;;;29.10;93.60;;;;;;5073601;28;20146;-74
2022/08/12 10:33:56;;;;;;;5.45;2.05;;;29.40;93.00;;;;;;5077744;28;20052;-74
2022/08/12 10:36:23;;;;;;;8.45;2.20;;;29.40;92.40;;;;;;5077343;28;20054;-73
2022/08/12 10:38:49;;;;;;;6.93;1.88;;;29.60;92.00;;;;;;5076100;28;20124;-75
2022/08/12 10:44:02;;;;;;;5.53;2.00;;;29.80;91.20;;;;;;5076934;28;20048;-74
2022/08/12 10:46:27;;;;;;;4.82;1.90;;;30.00;91.80;;;;;;5060597;28;20063;-74
2022/08/12 10:48:53;;;;;;;4.63;1.80;;;30.20;91.30;;;;;;5064739;28;20032;-74
2022/08/12 10:51:19;;;;;;;5.55;2.08;;;30.30;90.70;;;;;;5064702;28;20036;-74
2022/08/12 10:53:45;;;;;;;6.03;2.10;;;30.40;90.30;;;;;;5082505;28;20135;-74
2022/08/12 10:56:15;;;;;;;3.67;1.67;;;30.60;91.10;;;;;;5082114;28;20040;-74
2022/08/12 10:58:42;;;;;;;5.53;2.15;;;30.60;90.40;;;;;;5067527;28;20051;-74
2022/08/12 11:01:09;;;;;;;6.60;2.13;;;30.80;89.90;;;;;;5066666;28;20056;-74
2022/08/12 11:03:39;;;;;;;8.32;2.10;;;31.00;90.00;;;;;;5064474;28;20057;-75
2022/08/12 11:06:06;;;;;;;6.15;2.00;;;31.10;88.50;;;;;;5082942;28;20094;-74
2022/08/12 11:08:34;;;;;;;4.88;1.83;;;31.20;89.90;;;;;;5063988;28;20374;-77
2022/08/12 11:11:00;;;;;;;8.30;1.88;;;31.50;90.20;;;;;;5078593;28;20177;-75
2022/08/12 11:13:26;;;;;;;2.13;1.80;;;31.60;89.50;;;;;;5075053;28;20127;-75
2022/08/12 11:15:54;;;;;;;5.22;1.80;;;32.00;89.60;;;;;;5063881;28;20054;-76
2022/08/12 11:18:21;;;;;;;8.85;1.73;;;32.20;87.60;;;;;;5070333;28;20493;-76
2022/08/12 11:20:47;;;;;;;3.63;2.08;;;32.30;88.70;;;;;;5075906;28;20063;-75
2022/08/12 11:23:13;;;;;;;5.75;1.83;;;32.40;87.20;;;;;;5085984;28;20070;-76
2022/08/12 11:25:42;;;;;;;2.40;1.63;;;32.60;87.60;;;;;;5062898;28;20035;-77
2022/08/12 11:28:07;;;;;;;3.25;1.58;;;32.40;86.00;;;;;;5065340;28;20494;-74
2022/08/12 11:30:33;;;;;;;4.55;1.73;;;32.60;85.60;;;;;;5079729;27;20047;-75
2022/08/12 11:32:59;;;;;;;4.75;2.00;;;32.70;85.60;;;;;;5087684;27;20126;-75
2022/08/12 11:36:04;;;;;;;4.95;1.52;;;32.60;85.50;;;;;;5089143;27;20122;-76
2022/08/12 11:38:30;;;;;;;2.17;1.42;;;32.60;86.40;;;;;;5081330;28;20074;-73
2022/08/12 11:40:56;;;;;;;5.10;1.50;;;32.40;84.60;;;;;;5067719;28;20045;-75
2022/08/12 11:43:21;;;;;;;6.53;1.70;;;32.50;83.60;;;;;;5070572;27;20124;-75
2022/08/12 11:45:47;;;;;;;4.70;1.50;;;32.70;84.10;;;;;;5071511;28;20052;-76
2022/08/12 11:48:14;;;;;;;2.47;1.50;;;32.60;84.20;;;;;;5066791;27;20455;-76
2022/08/12 11:50:42;;;;;;;6.70;1.60;;;32.60;84.40;;;;;;5079679;28;20042;-75
2022/08/12 11:53:08;;;;;;;3.60;1.35;;;32.70;84.20;;;;;;5067618;28;20141;-75
2022/08/12 11:55:34;;;;;;;4.30;1.80;;;32.90;84.70;;;;;;5082178;28;20455;-75
2022/08/12 11:57:59;;;;;;;4.78;1.27;;;33.40;83.00;;;;;;5066179;28;20062;-74
2022/08/12 12:00:26;;;;;;;3.55;1.50;;;33.70;81.60;;;;;;5081343;28;20044;-75
2022/08/12 12:02:51;;;;;;;6.20;1.58;;;33.90;81.60;;;;;;5070203;28;20051;-75
2022/08/12 12:05:18;;;;;;;3.25;1.60;;;33.70;82.50;;;;;;5068426;27;20109;-75
2022/08/12 12:07:45;;;;;;;3.83;1.40;;;34.00;81.60;;;;;;5083590;28;20482;-75
2022/08/12 12:10:13;;;;;;;7.07;2.00;;;34.10;82.00;;;;;;5080674;28;20112;-75
2022/08/12 12:12:40;;;;;;;10.48;1.90;;;34.10;80.60;;;;;;5077172;28;20134;-75
2022/08/12 12:15:06;;;;;;;6.10;1.60;;;33.80;81.10;;;;;;5066183;27;20043;-75
2022/08/12 12:17:39;;;;;;;4.00;1.70;;;33.90;81.10;;;;;;5078728;28;20101;-75
2022/08/12 12:20:11;;;;;;;2.35;1.63;;;33.80;80.10;;;;;;5082002;28;20047;-76
2022/08/12 12:22:38;;;;;;;6.40;1.55;;;33.40;81.00;;;;;;5070410;27;20498;-75
2022/08/12 12:25:05;;;;;;;8.57;1.58;;;33.60;81.00;;;;;;5077049;28;20125;-76
2022/08/12 12:27:48;;;;;;;4.40;1.50;;;33.20;80.70;;;;;;5064916;28;20047;-75
2022/08/12 12:30:14;;;;;;;9.43;1.75;;;33.50;81.90;;;;;;5083986;28;20036;-75
2022/08/12 12:32:40;;;;;;;4.97;1.50;;;33.90;80.90;;;;;;5083433;27;20042;-75
2022/08/12 12:35:06;;;;;;;5.50;1.23;;;34.30;80.50;;;;;;5078605;28;20039;-75
2022/08/12 12:37:32;;;;;;;6.30;1.35;;;34.30;79.30;;;;;;5066429;28;22268;-75
2022/08/12 12:39:58;;;;;;;5.57;1.52;;;34.10;79.60;;;;;;5078352;28;20050;-74
2022/08/12 12:42:23;;;;;;;2.75;1.60;;;34.40;79.50;;;;;;5086803;27;20052;-75
2022/08/12 12:44:49;;;;;;;4.22;1.50;;;34.50;78.90;;;;;;5084828;28;20043;-74
2022/08/12 12:47:15;;;;;;;2.53;1.42;;;34.10;78.30;;;;;;5064307;27;20391;-74
2022/08/12 12:49:41;;;;;;;4.60;1.58;;;34.00;79.50;;;;;;5065989;28;20513;-75
2022/08/12 12:52:07;;;;;;;3.92;1.48;;;33.90;79.30;;;;;;5064902;28;20087;-74
2022/08/12 12:54:33;;;;;;;6.70;1.50;;;34.00;79.00;;;;;;5080057;28;20122;-75
2022/08/12 12:56:59;;;;;;;5.70;1.50;;;34.10;78.90;;;;;;5082222;28;20051;-74
2022/08/12 12:59:26;;;;;;;3.22;1.48;;;34.50;78.80;;;;;;5083604;27;20173;-74
2022/08/12 13:01:52;;;;;;;3.47;1.48;;;34.80;78.60;;;;;;5081043;27;20056;-76
2022/08/12 13:04:18;;;;;;;7.05;1.33;;;34.70;77.70;;;;;;5080532;28;20053;-76
2022/08/12 13:06:50;;;;;;;4.00;1.30;;;35.20;76.70;;;;;;5078240;27;20505;-76
2022/08/12 13:09:17;;;;;;;4.65;1.45;;;35.30;76.90;;;;;;5081304;28;20051;-77
2022/08/12 13:11:43;;;;;;;8.18;1.73;;;35.00;75.50;;;;;;5070130;27;20644;-76
2022/08/12 13:14:10;;;;;;;5.00;1.52;;;34.60;75.90;;;;;;5079495;28;20054;-75
2022/08/12 13:16:37;;;;;;;6.68;1.58;;;35.00;76.20;;;;;;5067216;28;20063;-75
2022/08/12 13:19:02;;;;;;;7.63;1.30;;;35.00;76.30;;;;;;5076915;28;20465;-75
2022/08/12 13:21:29;;;;;;;4.35;1.80;;;34.60;76.00;;;;;;5073419;28;20045;-75
2022/08/12 13:23:56;;;;;;;3.95;1.30;;;35.10;75.40;;;;;;5080324;28;20166;-74
2022/08/12 13:26:22;;;;;;;4.72;1.40;;;35.50;76.50;;;;;;5080347;28;20052;-75
2022/08/12 13:28:52;;;;;;;2.00;1.20;;;35.50;74.80;;;;;;5074863;28;20051;-75
2022/08/12 13:31:20;;;;;;;2.13;1.20;;;35.60;74.10;;;;;;5078244;28;20040;-74
2022/08/12 13:33:50;;;;;;;3.70;1.30;;;35.70;74.10;;;;;;5071352;28;20039;-75
2022/08/12 13:36:19;;;;;;;3.58;1.17;;;35.60;74.10;;;;;;5076292;28;20131;-75
2022/08/12 13:38:49;;;;;;;8.05;1.33;;;35.80;75.10;;;;;;5075682;28;20051;-76
2022/08/12 13:41:31;;;;;;;5.60;1.13;;;36.00;73.10;;;;;;5075733;28;20108;-75
2022/08/12 13:43:58;;;;;;;5.03;1.30;;;36.00;73.20;;;;;;5059629;28;20150;-75
2022/08/12 13:46:24;;;;;;;3.70;1.35;;;36.10;74.60;;;;;;5077271;28;20048;-75
2022/08/12 13:48:53;;;;;;;6.95;1.50;;;36.20;74.40;;;;;;5074867;28;20051;-75
2022/08/12 13:51:18;;;;;;;3.63;1.40;;;36.00;74.10;;;;;;5081382;28;20088;-75
2022/08/12 13:53:44;;;;;;;5.57;1.30;;;35.70;73.60;;;;;;5095339;28;20036;-75
2022/08/12 13:56:10;;;;;;;2.97;1.50;;;35.50;72.80;;;;;;5059438;28;20047;-74
2022/08/12 13:58:48;;;;;;;5.10;1.38;;;35.40;73.00;;;;;;5064910;28;20131;-75
2022/08/12 14:01:19;;;;;;;4.45;1.48;;;35.60;73.90;;;;;;5080363;28;20047;-76
2022/08/12 14:03:45;;;;;;;8.15;1.40;;;35.80;73.20;;;;;;5081473;28;20142;-75
2022/08/12 14:06:11;;;;;;;7.00;1.38;;;35.50;72.30;;;;;;5079943;28;20059;-75
2022/08/12 14:08:37;;;;;;;4.20;1.38;;;35.60;72.60;;;;;;5079305;28;20051;-74
2022/08/12 14:11:03;;;;;;;6.97;1.42;;;35.20;73.80;;;;;;5086081;28;20036;-76
2022/08/12 14:13:31;;;;;;;5.53;1.35;;;35.70;74.10;;;;;;5086064;28;20509;-75
2022/08/12 14:15:59;;;;;;;5.47;1.40;;;35.60;73.20;;;;;;5071437;28;20138;-74
2022/08/12 14:18:32;;;;;;;5.18;1.40;;;35.70;73.60;;;;;;5066695;28;20447;-72
2022/08/12 14:21:01;;;;;;;3.75;1.38;;;36.10;73.50;;;;;;5074591;28;20090;-76
2022/08/12 14:23:31;;;;;;;2.00;1.15;;;36.00;73.00;;;;;;5063252;28;20044;-76
2022/08/12 14:25:59;;;;;;;6.13;1.20;;;36.10;72.80;;;;;;5061997;28;20036;-76
2022/08/12 14:28:26;;;;;;;6.30;1.58;;;35.90;72.50;;;;;;5061336;28;20044;-75
2022/08/12 14:31:01;;;;;;;6.72;1.40;;;36.10;73.60;;;;;;5071311;28;20052;-76
2022/08/12 14:33:47;;;;;;;3.33;1.50;;;36.10;72.10;;;;;;5018579;28;20040;-75
2022/08/12 14:36:17;;;;;;;4.55;1.40;;;36.10;73.10;;;;;;5000987;28;20056;-75
2022/08/12 14:38:44;;;;;;;6.05;1.33;;;36.60;73.40;;;;;;5023750;28;20591;-76
2022/08/12 14:41:16;;;;;;;3.45;1.67;;;36.70;71.40;;;;;;5015185;28;20512;-75
2022/08/12 14:43:45;;;;;;;3.17;1.67;;;36.50;72.00;;;;;;5004518;28;20055;-75